sensor_id;sensor_type;location;lat;lon;timestamp;temperature;humidity
55828;DHT22;41758;51.992;5.890;2023-06-01T00:01:16;17.90;48.90
55828;DHT22;41758;51.992;5.890;2023-06-01T00:03:42;17.80;49.00
55828;DHT22;41758;51.992;5.890;2023-06-01T00:06:08;17.80;49.10
55828;DHT22;41758;51.992;5.890;2023-06-01T00:08:33;17.80;49.20
55828;DHT22;41758;51.992;5.890;2023-06-01T00:10:59;17.80;49.40
55828;DHT22;41758;51.992;5.890;2023-06-01T00:13:25;17.70;49.30
55828;DHT22;41758;51.992;5.890;2023-06-01T00:15:51;17.70;49.40
55828;DHT22;41758;51.992;5.890;2023-06-01T00:18:16;17.60;49.50
55828;DHT22;41758;51.992;5.890;2023-06-01T00:20:42;17.60;49.50
55828;DHT22;41758;51.992;5.890;2023-06-01T00:23:10;17.60;49.50
55828;DHT22;41758;51.992;5.890;2023-06-01T00:25:36;17.60;49.50
55828;DHT22;41758;51.992;5.890;2023-06-01T00:28:01;17.50;49.50
55828;DHT22;41758;51.992;5.890;2023-06-01T00:30:28;17.50;49.50
55828;DHT22;41758;51.992;5.890;2023-06-01T00:32:54;17.50;49.60
55828;DHT22;41758;51.992;5.890;2023-06-01T00:35:21;17.40;49.60
55828;DHT22;41758;51.992;5.890;2023-06-01T00:37:46;17.40;49.70
55828;DHT22;41758;51.992;5.890;2023-06-01T00:40:13;17.40;49.80
55828;DHT22;41758;51.992;5.890;2023-06-01T00:42:38;17.40;49.80
55828;DHT22;41758;51.992;5.890;2023-06-01T00:45:05;17.30;49.80
55828;DHT22;41758;51.992;5.890;2023-06-01T00:47:38;17.30;49.90
55828;DHT22;41758;51.992;5.890;2023-06-01T00:50:04;17.30;50.00
55828;DHT22;41758;51.992;5.890;2023-06-01T00:52:30;17.30;50.00
55828;DHT22;41758;51.992;5.890;2023-06-01T00:54:57;17.30;50.00
55828;DHT22;41758;51.992;5.890;2023-06-01T00:57:24;17.30;50.10
55828;DHT22;41758;51.992;5.890;2023-06-01T00:59:53;17.30;50.10
55828;DHT22;41758;51.992;5.890;2023-06-01T01:02:18;17.30;50.20
55828;DHT22;41758;51.992;5.890;2023-06-01T01:04:46;17.30;50.30
55828;DHT22;41758;51.992;5.890;2023-06-01T01:07:25;17.30;50.30
55828;DHT22;41758;51.992;5.890;2023-06-01T01:10:02;17.30;50.30
55828;DHT22;41758;51.992;5.890;2023-06-01T01:12:58;17.30;50.30
55828;DHT22;41758;51.992;5.890;2023-06-01T01:15:32;17.30;50.30
55828;DHT22;41758;51.992;5.890;2023-06-01T01:18:04;17.30;50.40
55828;DHT22;41758;51.992;5.890;2023-06-01T01:20:41;17.20;50.50
55828;DHT22;41758;51.992;5.890;2023-06-01T01:26:12;17.20;50.50
55828;DHT22;41758;51.992;5.890;2023-06-01T01:28:42;17.20;50.60
55828;DHT22;41758;51.992;5.890;2023-06-01T01:31:11;17.20;50.80
55828;DHT22;41758;51.992;5.890;2023-06-01T01:33:38;17.20;50.80
55828;DHT22;41758;51.992;5.890;2023-06-01T01:36:06;17.20;50.90
55828;DHT22;41758;51.992;5.890;2023-06-01T01:38:35;17.20;50.80
55828;DHT22;41758;51.992;5.890;2023-06-01T01:41:02;17.20;50.90
55828;DHT22;41758;51.992;5.890;2023-06-01T01:43:28;17.20;50.90
55828;DHT22;41758;51.992;5.890;2023-06-01T01:52:37;17.30;51.00
55828;DHT22;41758;51.992;5.890;2023-06-01T01:54:37;17.30;51.10
55828;DHT22;41758;51.992;5.890;2023-06-01T01:57:05;17.20;51.20
55828;DHT22;41758;51.992;5.890;2023-06-01T01:59:33;17.30;51.20
55828;DHT22;41758;51.992;5.890;2023-06-01T02:01:59;17.30;51.20
55828;DHT22;41758;51.992;5.890;2023-06-01T02:04:25;17.30;51.30
55828;DHT22;41758;51.992;5.890;2023-06-01T02:06:51;17.30;51.30
55828;DHT22;41758;51.992;5.890;2023-06-01T02:09:17;17.30;51.30
55828;DHT22;41758;51.992;5.890;2023-06-01T02:11:43;17.30;51.40
55828;DHT22;41758;51.992;5.890;2023-06-01T02:14:09;17.30;51.30
55828;DHT22;41758;51.992;5.890;2023-06-01T02:16:35;17.30;51.30
55828;DHT22;41758;51.992;5.890;2023-06-01T02:19:01;17.30;51.30
55828;DHT22;41758;51.992;5.890;2023-06-01T02:21:28;17.30;51.30
55828;DHT22;41758;51.992;5.890;2023-06-01T02:23:59;17.30;51.30
55828;DHT22;41758;51.992;5.890;2023-06-01T02:26:30;17.30;51.30
55828;DHT22;41758;51.992;5.890;2023-06-01T02:28:56;17.30;51.40
55828;DHT22;41758;51.992;5.890;2023-06-01T02:31:22;17.30;51.50
55828;DHT22;41758;51.992;5.890;2023-06-01T02:33:48;17.30;51.50
55828;DHT22;41758;51.992;5.890;2023-06-01T02:36:14;17.20;51.60
55828;DHT22;41758;51.992;5.890;2023-06-01T02:38:43;17.20;51.60
55828;DHT22;41758;51.992;5.890;2023-06-01T02:41:09;17.20;51.60
55828;DHT22;41758;51.992;5.890;2023-06-01T02:43:35;17.20;51.70
55828;DHT22;41758;51.992;5.890;2023-06-01T02:46:01;17.20;51.70
55828;DHT22;41758;51.992;5.890;2023-06-01T02:48:27;17.20;51.80
55828;DHT22;41758;51.992;5.890;2023-06-01T02:50:54;17.20;51.90
55828;DHT22;41758;51.992;5.890;2023-06-01T02:53:21;17.20;51.80
55828;DHT22;41758;51.992;5.890;2023-06-01T02:55:47;17.10;51.80
55828;DHT22;41758;51.992;5.890;2023-06-01T02:58:27;17.10;51.70
55828;DHT22;41758;51.992;5.890;2023-06-01T03:01:04;17.10;51.80
55828;DHT22;41758;51.992;5.890;2023-06-01T03:03:30;17.10;51.80
55828;DHT22;41758;51.992;5.890;2023-06-01T03:05:56;17.10;51.80
55828;DHT22;41758;51.992;5.890;2023-06-01T03:08:45;17.10;51.90
55828;DHT22;41758;51.992;5.890;2023-06-01T03:11:30;17.10;51.90
55828;DHT22;41758;51.992;5.890;2023-06-01T03:13:55;17.10;51.90
55828;DHT22;41758;51.992;5.890;2023-06-01T03:16:25;17.10;51.90
55828;DHT22;41758;51.992;5.890;2023-06-01T03:19:02;17.10;51.90
55828;DHT22;41758;51.992;5.890;2023-06-01T03:21:28;17.10;51.90
55828;DHT22;41758;51.992;5.890;2023-06-01T03:23:54;17.10;51.90
55828;DHT22;41758;51.992;5.890;2023-06-01T03:26:20;17.10;51.90
55828;DHT22;41758;51.992;5.890;2023-06-01T03:28:47;17.10;51.90
55828;DHT22;41758;51.992;5.890;2023-06-01T03:31:13;17.10;51.90
55828;DHT22;41758;51.992;5.890;2023-06-01T03:33:39;17.10;51.90
55828;DHT22;41758;51.992;5.890;2023-06-01T03:36:05;17.00;51.80
55828;DHT22;41758;51.992;5.890;2023-06-01T03:38:32;17.10;51.90
55828;DHT22;41758;51.992;5.890;2023-06-01T03:40:58;17.10;51.90
55828;DHT22;41758;51.992;5.890;2023-06-01T03:43:24;17.00;51.90
55828;DHT22;41758;51.992;5.890;2023-06-01T03:45:50;17.00;51.90
55828;DHT22;41758;51.992;5.890;2023-06-01T03:48:16;17.00;51.90
55828;DHT22;41758;51.992;5.890;2023-06-01T03:50:41;17.00;52.00
55828;DHT22;41758;51.992;5.890;2023-06-01T03:53:07;17.00;52.10
55828;DHT22;41758;51.992;5.890;2023-06-01T03:55:33;16.90;52.10
55828;DHT22;41758;51.992;5.890;2023-06-01T03:58:09;16.90;52.10
55828;DHT22;41758;51.992;5.890;2023-06-01T04:00:35;16.90;52.10
55828;DHT22;41758;51.992;5.890;2023-06-01T04:03:03;17.00;52.10
55828;DHT22;41758;51.992;5.890;2023-06-01T04:05:33;17.00;52.20
55828;DHT22;41758;51.992;5.890;2023-06-01T04:08:00;17.00;52.20
55828;DHT22;41758;51.992;5.890;2023-06-01T04:10:26;17.00;52.30
55828;DHT22;41758;51.992;5.890;2023-06-01T04:12:52;17.00;52.20
55828;DHT22;41758;51.992;5.890;2023-06-01T04:15:20;17.00;52.20
55828;DHT22;41758;51.992;5.890;2023-06-01T04:17:46;17.00;52.30
55828;DHT22;41758;51.992;5.890;2023-06-01T04:20:16;17.00;52.30
55828;DHT22;41758;51.992;5.890;2023-06-01T04:22:44;17.00;52.40
55828;DHT22;41758;51.992;5.890;2023-06-01T04:25:11;17.00;52.40
55828;DHT22;41758;51.992;5.890;2023-06-01T04:27:45;17.00;52.50
55828;DHT22;41758;51.992;5.890;2023-06-01T04:30:15;17.00;52.40
55828;DHT22;41758;51.992;5.890;2023-06-01T04:32:43;17.10;52.50
55828;DHT22;41758;51.992;5.890;2023-06-01T04:35:14;17.10;52.40
55828;DHT22;41758;51.992;5.890;2023-06-01T04:37:41;17.10;52.40
55828;DHT22;41758;51.992;5.890;2023-06-01T04:40:09;17.10;52.40
55828;DHT22;41758;51.992;5.890;2023-06-01T04:42:41;17.10;52.40
55828;DHT22;41758;51.992;5.890;2023-06-01T04:45:11;17.10;52.40
55828;DHT22;41758;51.992;5.890;2023-06-01T04:47:40;17.10;52.50
55828;DHT22;41758;51.992;5.890;2023-06-01T04:50:13;17.20;52.50
55828;DHT22;41758;51.992;5.890;2023-06-01T04:52:41;17.20;52.50
55828;DHT22;41758;51.992;5.890;2023-06-01T04:55:08;17.20;52.50
55828;DHT22;41758;51.992;5.890;2023-06-01T04:57:35;17.30;52.40
55828;DHT22;41758;51.992;5.890;2023-06-01T05:00:08;17.20;52.40
55828;DHT22;41758;51.992;5.890;2023-06-01T05:02:37;17.20;52.30
55828;DHT22;41758;51.992;5.890;2023-06-01T05:05:04;17.20;52.40
55828;DHT22;41758;51.992;5.890;2023-06-01T05:07:31;17.10;52.30
55828;DHT22;41758;51.992;5.890;2023-06-01T05:09:57;17.10;52.40
55828;DHT22;41758;51.992;5.890;2023-06-01T05:12:23;17.10;52.50
55828;DHT22;41758;51.992;5.890;2023-06-01T05:14:49;17.10;52.50
55828;DHT22;41758;51.992;5.890;2023-06-01T05:17:16;17.10;52.60
55828;DHT22;41758;51.992;5.890;2023-06-01T05:19:41;17.10;52.60
55828;DHT22;41758;51.992;5.890;2023-06-01T05:22:07;17.20;52.70
55828;DHT22;41758;51.992;5.890;2023-06-01T05:24:33;17.20;52.70
55828;DHT22;41758;51.992;5.890;2023-06-01T05:26:59;17.20;52.70
55828;DHT22;41758;51.992;5.890;2023-06-01T05:29:25;17.30;52.60
55828;DHT22;41758;51.992;5.890;2023-06-01T05:31:51;17.30;52.60
55828;DHT22;41758;51.992;5.890;2023-06-01T05:34:17;17.30;52.50
55828;DHT22;41758;51.992;5.890;2023-06-01T05:36:43;17.30;52.40
55828;DHT22;41758;51.992;5.890;2023-06-01T05:39:09;17.30;52.40
55828;DHT22;41758;51.992;5.890;2023-06-01T05:41:34;17.30;52.40
55828;DHT22;41758;51.992;5.890;2023-06-01T05:44:00;17.30;52.40
55828;DHT22;41758;51.992;5.890;2023-06-01T05:46:26;17.30;52.40
55828;DHT22;41758;51.992;5.890;2023-06-01T05:48:52;17.30;52.50
55828;DHT22;41758;51.992;5.890;2023-06-01T05:51:18;17.30;52.50
55828;DHT22;41758;51.992;5.890;2023-06-01T05:53:44;17.30;52.50
55828;DHT22;41758;51.992;5.890;2023-06-01T05:56:10;17.30;52.50
55828;DHT22;41758;51.992;5.890;2023-06-01T05:58:36;17.40;52.50
55828;DHT22;41758;51.992;5.890;2023-06-01T06:01:01;17.40;52.50
55828;DHT22;41758;51.992;5.890;2023-06-01T06:03:27;17.40;52.60
55828;DHT22;41758;51.992;5.890;2023-06-01T06:05:54;17.50;52.50
55828;DHT22;41758;51.992;5.890;2023-06-01T06:08:20;17.60;52.60
55828;DHT22;41758;51.992;5.890;2023-06-01T06:10:46;17.60;52.50
55828;DHT22;41758;51.992;5.890;2023-06-01T06:13:13;17.70;52.60
55828;DHT22;41758;51.992;5.890;2023-06-01T06:15:39;17.70;52.60
55828;DHT22;41758;51.992;5.890;2023-06-01T06:18:04;17.70;52.60
55828;DHT22;41758;51.992;5.890;2023-06-01T06:20:31;17.80;52.60
55828;DHT22;41758;51.992;5.890;2023-06-01T06:22:57;17.80;52.60
55828;DHT22;41758;51.992;5.890;2023-06-01T06:25:22;17.80;52.60
55828;DHT22;41758;51.992;5.890;2023-06-01T06:27:48;17.90;52.60
55828;DHT22;41758;51.992;5.890;2023-06-01T06:30:14;17.90;52.60
55828;DHT22;41758;51.992;5.890;2023-06-01T06:32:41;17.90;52.50
55828;DHT22;41758;51.992;5.890;2023-06-01T06:35:06;18.00;52.40
55828;DHT22;41758;51.992;5.890;2023-06-01T06:37:32;18.00;52.30
55828;DHT22;41758;51.992;5.890;2023-06-01T06:39:58;18.00;52.20
55828;DHT22;41758;51.992;5.890;2023-06-01T06:42:24;17.90;52.20
55828;DHT22;41758;51.992;5.890;2023-06-01T06:44:50;18.00;52.20
55828;DHT22;41758;51.992;5.890;2023-06-01T06:47:16;17.90;52.10
55828;DHT22;41758;51.992;5.890;2023-06-01T06:49:45;17.90;52.10
55828;DHT22;41758;51.992;5.890;2023-06-01T06:52:10;17.90;52.10
55828;DHT22;41758;51.992;5.890;2023-06-01T06:54:38;17.90;52.10
55828;DHT22;41758;51.992;5.890;2023-06-01T06:57:05;17.80;52.00
55828;DHT22;41758;51.992;5.890;2023-06-01T06:59:31;17.80;52.10
55828;DHT22;41758;51.992;5.890;2023-06-01T07:01:57;17.80;52.10
55828;DHT22;41758;51.992;5.890;2023-06-01T07:04:22;17.80;52.10
55828;DHT22;41758;51.992;5.890;2023-06-01T07:06:49;17.80;52.10
55828;DHT22;41758;51.992;5.890;2023-06-01T07:09:17;17.80;52.10
55828;DHT22;41758;51.992;5.890;2023-06-01T07:11:42;17.80;52.10
55828;DHT22;41758;51.992;5.890;2023-06-01T07:14:08;17.80;52.10
55828;DHT22;41758;51.992;5.890;2023-06-01T07:16:34;17.80;52.10
55828;DHT22;41758;51.992;5.890;2023-06-01T07:19:00;17.90;52.20
55828;DHT22;41758;51.992;5.890;2023-06-01T07:21:25;17.90;52.20
55828;DHT22;41758;51.992;5.890;2023-06-01T07:23:52;17.90;52.20
55828;DHT22;41758;51.992;5.890;2023-06-01T07:26:17;18.00;52.30
55828;DHT22;41758;51.992;5.890;2023-06-01T07:28:43;18.10;52.30
55828;DHT22;41758;51.992;5.890;2023-06-01T07:31:09;18.10;52.20
55828;DHT22;41758;51.992;5.890;2023-06-01T07:33:35;18.10;52.20
55828;DHT22;41758;51.992;5.890;2023-06-01T07:36:05;18.20;52.20
55828;DHT22;41758;51.992;5.890;2023-06-01T07:38:31;18.30;52.10
55828;DHT22;41758;51.992;5.890;2023-06-01T07:40:58;18.30;52.00
55828;DHT22;41758;51.992;5.890;2023-06-01T07:43:24;18.30;52.00
55828;DHT22;41758;51.992;5.890;2023-06-01T07:45:50;18.40;52.00
55828;DHT22;41758;51.992;5.890;2023-06-01T07:48:15;18.40;52.00
55828;DHT22;41758;51.992;5.890;2023-06-01T07:50:41;18.40;52.00
55828;DHT22;41758;51.992;5.890;2023-06-01T07:53:07;18.50;52.00
55828;DHT22;41758;51.992;5.890;2023-06-01T07:55:33;18.50;52.00
55828;DHT22;41758;51.992;5.890;2023-06-01T07:57:59;18.60;51.90
55828;DHT22;41758;51.992;5.890;2023-06-01T08:00:26;18.60;52.00
55828;DHT22;41758;51.992;5.890;2023-06-01T08:02:51;18.70;52.00
55828;DHT22;41758;51.992;5.890;2023-06-01T08:05:18;18.80;52.00
55828;DHT22;41758;51.992;5.890;2023-06-01T08:07:44;18.90;51.90
55828;DHT22;41758;51.992;5.890;2023-06-01T08:10:12;19.00;51.80
55828;DHT22;41758;51.992;5.890;2023-06-01T08:12:38;19.00;51.60
55828;DHT22;41758;51.992;5.890;2023-06-01T08:15:05;19.10;51.60
55828;DHT22;41758;51.992;5.890;2023-06-01T08:17:31;19.10;51.60
55828;DHT22;41758;51.992;5.890;2023-06-01T08:19:56;19.10;51.50
55828;DHT22;41758;51.992;5.890;2023-06-01T08:22:23;19.20;51.40
55828;DHT22;41758;51.992;5.890;2023-06-01T08:24:49;19.30;51.40
55828;DHT22;41758;51.992;5.890;2023-06-01T08:27:25;19.30;51.20
55828;DHT22;41758;51.992;5.890;2023-06-01T08:29:53;19.30;51.10
55828;DHT22;41758;51.992;5.890;2023-06-01T08:32:19;19.30;51.20
55828;DHT22;41758;51.992;5.890;2023-06-01T08:34:45;19.40;51.20
55828;DHT22;41758;51.992;5.890;2023-06-01T08:37:12;19.40;51.10
55828;DHT22;41758;51.992;5.890;2023-06-01T08:39:39;19.50;51.10
55828;DHT22;41758;51.992;5.890;2023-06-01T08:42:09;19.60;51.00
55828;DHT22;41758;51.992;5.890;2023-06-01T08:44:38;19.70;51.00
55828;DHT22;41758;51.992;5.890;2023-06-01T08:47:05;19.80;50.90
55828;DHT22;41758;51.992;5.890;2023-06-01T08:49:32;19.80;50.90
55828;DHT22;41758;51.992;5.890;2023-06-01T08:52:09;19.90;50.90
55828;DHT22;41758;51.992;5.890;2023-06-01T08:54:36;20.00;50.80
55828;DHT22;41758;51.992;5.890;2023-06-01T08:57:06;20.10;50.80
55828;DHT22;41758;51.992;5.890;2023-06-01T08:59:35;20.30;50.60
55828;DHT22;41758;51.992;5.890;2023-06-01T09:02:02;20.40;50.70
55828;DHT22;41758;51.992;5.890;2023-06-01T09:04:28;20.50;50.60
55828;DHT22;41758;51.992;5.890;2023-06-01T09:06:57;20.70;50.60
55828;DHT22;41758;51.992;5.890;2023-06-01T09:09:23;20.80;50.50
55828;DHT22;41758;51.992;5.890;2023-06-01T09:12:42;20.90;50.50
55828;DHT22;41758;51.992;5.890;2023-06-01T09:15:15;21.00;50.30
55828;DHT22;41758;51.992;5.890;2023-06-01T09:17:48;21.20;50.20
55828;DHT22;41758;51.992;5.890;2023-06-01T09:20:28;21.30;50.20
55828;DHT22;41758;51.992;5.890;2023-06-01T09:22:54;21.40;50.10
55828;DHT22;41758;51.992;5.890;2023-06-01T09:25:25;21.50;50.00
55828;DHT22;41758;51.992;5.890;2023-06-01T09:27:53;21.60;49.80
55828;DHT22;41758;51.992;5.890;2023-06-01T09:30:20;21.70;49.20
55828;DHT22;41758;51.992;5.890;2023-06-01T09:32:47;21.70;48.40
55828;DHT22;41758;51.992;5.890;2023-06-01T09:35:26;21.70;48.50
55828;DHT22;41758;51.992;5.890;2023-06-01T09:38:02;21.80;48.60
55828;DHT22;41758;51.992;5.890;2023-06-01T09:40:32;21.80;48.50
55828;DHT22;41758;51.992;5.890;2023-06-01T09:42:58;21.90;47.80
55828;DHT22;41758;51.992;5.890;2023-06-01T09:45:24;22.00;47.70
55828;DHT22;41758;51.992;5.890;2023-06-01T09:47:51;22.00;47.80
55828;DHT22;41758;51.992;5.890;2023-06-01T09:50:36;22.00;47.80
55828;DHT22;41758;51.992;5.890;2023-06-01T09:53:04;22.10;47.70
55828;DHT22;41758;51.992;5.890;2023-06-01T09:55:30;22.20;47.60
55828;DHT22;41758;51.992;5.890;2023-06-01T10:00:46;22.40;47.50
55828;DHT22;41758;51.992;5.890;2023-06-01T10:03:17;22.50;47.40
55828;DHT22;41758;51.992;5.890;2023-06-01T10:05:46;22.60;47.40
55828;DHT22;41758;51.992;5.890;2023-06-01T10:08:15;22.70;47.30
55828;DHT22;41758;51.992;5.890;2023-06-01T10:10:47;22.80;47.20
55828;DHT22;41758;51.992;5.890;2023-06-01T10:13:13;22.90;47.10
55828;DHT22;41758;51.992;5.890;2023-06-01T10:15:39;23.00;46.70
55828;DHT22;41758;51.992;5.890;2023-06-01T10:18:05;23.10;46.40
55828;DHT22;41758;51.992;5.890;2023-06-01T10:20:33;23.10;46.40
55828;DHT22;41758;51.992;5.890;2023-06-01T10:23:03;23.20;46.40
55828;DHT22;41758;51.992;5.890;2023-06-01T10:25:37;23.30;46.40
55828;DHT22;41758;51.992;5.890;2023-06-01T10:28:06;23.40;46.30
55828;DHT22;41758;51.992;5.890;2023-06-01T10:30:35;23.50;46.20
55828;DHT22;41758;51.992;5.890;2023-06-01T10:33:02;23.60;46.10
55828;DHT22;41758;51.992;5.890;2023-06-01T10:40:39;23.80;45.80
55828;DHT22;41758;51.992;5.890;2023-06-01T10:43:05;24.00;45.60
55828;DHT22;41758;51.992;5.890;2023-06-01T10:45:38;24.00;45.30
55828;DHT22;41758;51.992;5.890;2023-06-01T10:48:09;24.10;45.00
55828;DHT22;41758;51.992;5.890;2023-06-01T10:50:39;24.20;44.90
55828;DHT22;41758;51.992;5.890;2023-06-01T10:56:25;24.40;44.50
55828;DHT22;41758;51.992;5.890;2023-06-01T11:01:44;24.60;44.50
55828;DHT22;41758;51.992;5.890;2023-06-01T11:04:10;24.70;44.40
55828;DHT22;41758;51.992;5.890;2023-06-01T11:06:38;24.80;44.20
55828;DHT22;41758;51.992;5.890;2023-06-01T11:09:07;24.90;44.20
55828;DHT22;41758;51.992;5.890;2023-06-01T11:14:18;25.10;44.00
55828;DHT22;41758;51.992;5.890;2023-06-01T11:16:44;25.20;44.00
55828;DHT22;41758;51.992;5.890;2023-06-01T11:19:17;25.30;43.80
55828;DHT22;41758;51.992;5.890;2023-06-01T11:21:43;25.50;43.60
55828;DHT22;41758;51.992;5.890;2023-06-01T11:24:11;25.50;43.50
55828;DHT22;41758;51.992;5.890;2023-06-01T11:26:48;25.60;43.20
55828;DHT22;41758;51.992;5.890;2023-06-01T11:29:23;25.70;43.00
55828;DHT22;41758;51.992;5.890;2023-06-01T11:32:05;25.80;42.90
55828;DHT22;41758;51.992;5.890;2023-06-01T11:34:39;25.90;42.30
55828;DHT22;41758;51.992;5.890;2023-06-01T11:37:17;25.90;42.30
55828;DHT22;41758;51.992;5.890;2023-06-01T11:39:43;26.00;42.20
55828;DHT22;41758;51.992;5.890;2023-06-01T11:42:15;26.10;42.30
55828;DHT22;41758;51.992;5.890;2023-06-01T11:44:43;26.20;42.20
55828;DHT22;41758;51.992;5.890;2023-06-01T11:47:10;26.30;42.20
55828;DHT22;41758;51.992;5.890;2023-06-01T11:49:49;26.40;41.70
55828;DHT22;41758;51.992;5.890;2023-06-01T11:52:20;26.50;41.40
55828;DHT22;41758;51.992;5.890;2023-06-01T11:54:46;26.60;40.70
55828;DHT22;41758;51.992;5.890;2023-06-01T11:57:13;26.70;40.50
55828;DHT22;41758;51.992;5.890;2023-06-01T11:59:49;26.70;40.60
55828;DHT22;41758;51.992;5.890;2023-06-01T12:02:26;26.80;40.30
55828;DHT22;41758;51.992;5.890;2023-06-01T12:07:21;26.90;40.20
55828;DHT22;41758;51.992;5.890;2023-06-01T12:09:46;27.00;40.20
55828;DHT22;41758;51.992;5.890;2023-06-01T12:12:13;27.10;40.10
55828;DHT22;41758;51.992;5.890;2023-06-01T12:14:39;27.10;39.80
55828;DHT22;41758;51.992;5.890;2023-06-01T12:17:06;27.20;39.60
55828;DHT22;41758;51.992;5.890;2023-06-01T12:19:31;27.20;39.40
55828;DHT22;41758;51.992;5.890;2023-06-01T12:21:58;27.30;39.20
55828;DHT22;41758;51.992;5.890;2023-06-01T12:24:30;27.30;39.20
55828;DHT22;41758;51.992;5.890;2023-06-01T12:26:59;27.40;39.00
55828;DHT22;41758;51.992;5.890;2023-06-01T12:32:04;27.60;38.90
55828;DHT22;41758;51.992;5.890;2023-06-01T12:34:29;27.60;38.70
55828;DHT22;41758;51.992;5.890;2023-06-01T12:36:55;27.70;38.60
55828;DHT22;41758;51.992;5.890;2023-06-01T12:39:34;27.70;38.40
55828;DHT22;41758;51.992;5.890;2023-06-01T12:42:06;27.80;38.30
55828;DHT22;41758;51.992;5.890;2023-06-01T12:44:32;27.80;38.30
55828;DHT22;41758;51.992;5.890;2023-06-01T12:47:01;27.80;38.10
55828;DHT22;41758;51.992;5.890;2023-06-01T12:49:27;27.80;38.00
55828;DHT22;41758;51.992;5.890;2023-06-01T12:51:54;27.90;37.90
55828;DHT22;41758;51.992;5.890;2023-06-01T12:54:19;27.90;37.80
55828;DHT22;41758;51.992;5.890;2023-06-01T12:56:49;27.90;37.80
55828;DHT22;41758;51.992;5.890;2023-06-01T12:59:15;28.00;37.60
55828;DHT22;41758;51.992;5.890;2023-06-01T13:01:42;28.00;37.50
55828;DHT22;41758;51.992;5.890;2023-06-01T13:04:08;28.10;37.40
55828;DHT22;41758;51.992;5.890;2023-06-01T13:06:34;28.10;37.40
55828;DHT22;41758;51.992;5.890;2023-06-01T13:09:01;28.20;37.10
55828;DHT22;41758;51.992;5.890;2023-06-01T13:11:27;28.20;37.10
55828;DHT22;41758;51.992;5.890;2023-06-01T13:13:53;28.20;37.10
55828;DHT22;41758;51.992;5.890;2023-06-01T13:16:19;28.20;37.10
55828;DHT22;41758;51.992;5.890;2023-06-01T13:18:46;28.20;37.00
55828;DHT22;41758;51.992;5.890;2023-06-01T13:21:14;28.20;37.10
55828;DHT22;41758;51.992;5.890;2023-06-01T13:23:41;28.30;36.90
55828;DHT22;41758;51.992;5.890;2023-06-01T13:26:07;28.30;36.60
55828;DHT22;41758;51.992;5.890;2023-06-01T13:28:33;28.30;36.70
55828;DHT22;41758;51.992;5.890;2023-06-01T13:30:59;28.30;36.70
55828;DHT22;41758;51.992;5.890;2023-06-01T13:33:25;28.30;36.80
55828;DHT22;41758;51.992;5.890;2023-06-01T13:35:51;28.30;36.90
55828;DHT22;41758;51.992;5.890;2023-06-01T13:38:16;28.40;36.90
55828;DHT22;41758;51.992;5.890;2023-06-01T13:40:42;28.40;36.80
55828;DHT22;41758;51.992;5.890;2023-06-01T13:43:08;28.40;36.90
55828;DHT22;41758;51.992;5.890;2023-06-01T13:45:34;28.40;36.90
55828;DHT22;41758;51.992;5.890;2023-06-01T13:48:01;28.40;37.00
55828;DHT22;41758;51.992;5.890;2023-06-01T13:50:27;28.30;37.10
55828;DHT22;41758;51.992;5.890;2023-06-01T13:52:52;28.30;37.00
55828;DHT22;41758;51.992;5.890;2023-06-01T13:55:19;28.20;37.00
55828;DHT22;41758;51.992;5.890;2023-06-01T13:57:45;28.20;37.10
55828;DHT22;41758;51.992;5.890;2023-06-01T14:00:12;28.10;36.90
55828;DHT22;41758;51.992;5.890;2023-06-01T14:02:42;28.00;36.90
55828;DHT22;41758;51.992;5.890;2023-06-01T14:05:08;27.90;37.10
55828;DHT22;41758;51.992;5.890;2023-06-01T14:07:36;27.90;37.10
55828;DHT22;41758;51.992;5.890;2023-06-01T14:10:02;27.90;37.20
55828;DHT22;41758;51.992;5.890;2023-06-01T14:12:28;27.80;37.30
55828;DHT22;41758;51.992;5.890;2023-06-01T14:14:53;27.80;37.30
55828;DHT22;41758;51.992;5.890;2023-06-01T14:17:19;27.70;37.30
55828;DHT22;41758;51.992;5.890;2023-06-01T14:19:45;27.70;37.30
55828;DHT22;41758;51.992;5.890;2023-06-01T14:22:11;27.60;37.30
55828;DHT22;41758;51.992;5.890;2023-06-01T14:24:36;27.50;37.30
55828;DHT22;41758;51.992;5.890;2023-06-01T14:27:02;27.40;37.30
55828;DHT22;41758;51.992;5.890;2023-06-01T14:29:28;27.40;37.40
55828;DHT22;41758;51.992;5.890;2023-06-01T14:31:53;27.30;37.30
55828;DHT22;41758;51.992;5.890;2023-06-01T14:34:19;27.20;37.30
55828;DHT22;41758;51.992;5.890;2023-06-01T14:36:45;27.20;37.40
55828;DHT22;41758;51.992;5.890;2023-06-01T14:39:11;27.10;37.40
55828;DHT22;41758;51.992;5.890;2023-06-01T14:41:37;27.10;37.40
55828;DHT22;41758;51.992;5.890;2023-06-01T14:44:03;27.00;37.40
55828;DHT22;41758;51.992;5.890;2023-06-01T14:46:29;26.90;37.40
55828;DHT22;41758;51.992;5.890;2023-06-01T14:48:55;26.90;37.40
55828;DHT22;41758;51.992;5.890;2023-06-01T14:51:20;26.80;37.40
55828;DHT22;41758;51.992;5.890;2023-06-01T14:53:46;26.70;37.60
55828;DHT22;41758;51.992;5.890;2023-06-01T14:56:14;26.70;37.70
55828;DHT22;41758;51.992;5.890;2023-06-01T14:58:40;26.70;37.60
55828;DHT22;41758;51.992;5.890;2023-06-01T15:01:05;26.60;37.70
55828;DHT22;41758;51.992;5.890;2023-06-01T15:03:31;26.60;37.70
55828;DHT22;41758;51.992;5.890;2023-06-01T15:05:58;26.60;37.70
55828;DHT22;41758;51.992;5.890;2023-06-01T15:08:23;26.60;37.50
55828;DHT22;41758;51.992;5.890;2023-06-01T15:10:51;26.50;37.70
55828;DHT22;41758;51.992;5.890;2023-06-01T15:13:19;26.50;37.80
55828;DHT22;41758;51.992;5.890;2023-06-01T15:15:44;26.40;37.60
55828;DHT22;41758;51.992;5.890;2023-06-01T15:18:10;26.30;37.80
55828;DHT22;41758;51.992;5.890;2023-06-01T15:20:36;26.30;38.00
55828;DHT22;41758;51.992;5.890;2023-06-01T15:23:02;26.30;38.00
55828;DHT22;41758;51.992;5.890;2023-06-01T15:25:27;26.30;38.00
55828;DHT22;41758;51.992;5.890;2023-06-01T15:27:53;26.30;37.90
55828;DHT22;41758;51.992;5.890;2023-06-01T15:30:19;26.20;37.90
55828;DHT22;41758;51.992;5.890;2023-06-01T15:32:44;26.00;37.90
55828;DHT22;41758;51.992;5.890;2023-06-01T15:35:10;25.90;38.00
55828;DHT22;41758;51.992;5.890;2023-06-01T15:37:36;25.80;38.10
55828;DHT22;41758;51.992;5.890;2023-06-01T15:40:03;25.80;38.20
55828;DHT22;41758;51.992;5.890;2023-06-01T15:42:36;25.80;38.00
55828;DHT22;41758;51.992;5.890;2023-06-01T15:45:02;25.60;38.00
55828;DHT22;41758;51.992;5.890;2023-06-01T15:47:27;25.40;38.00
55828;DHT22;41758;51.992;5.890;2023-06-01T15:49:53;25.30;38.30
55828;DHT22;41758;51.992;5.890;2023-06-01T15:52:19;25.30;38.50
55828;DHT22;41758;51.992;5.890;2023-06-01T15:54:45;25.20;38.50
55828;DHT22;41758;51.992;5.890;2023-06-01T15:57:10;25.00;38.40
55828;DHT22;41758;51.992;5.890;2023-06-01T15:59:36;24.90;38.50
55828;DHT22;41758;51.992;5.890;2023-06-01T16:02:01;24.80;38.60
55828;DHT22;41758;51.992;5.890;2023-06-01T16:04:28;24.70;38.70